createdAt,value
2018-03-12T00:00:20.817Z,14.35
2018-03-12T00:02:52.127Z,14.28
2018-03-12T00:05:23.315Z,14.24
2018-03-12T00:07:56.263Z,14.25
2018-03-12T00:10:27.263Z,14.21
2018-03-12T00:12:58.874Z,14.27
2018-03-12T00:15:30.620Z,14.30
2018-03-12T00:18:01.974Z,14.37
2018-03-12T00:20:35.546Z,14.30
2018-03-12T00:23:07.954Z,14.32
2018-03-12T00:25:39.814Z,14.28
2018-03-12T00:28:11.363Z,14.24
2018-03-12T00:30:43.036Z,14.16
2018-03-12T00:33:15.453Z,14.14
2018-03-12T00:35:47.453Z,14.11
2018-03-12T00:38:18.764Z,14.11
2018-03-12T00:40:50.433Z,14.10
2018-03-12T00:43:22.774Z,13.93
2018-03-12T00:45:54.925Z,13.92
2018-03-12T00:48:26.331Z,13.86
2018-03-12T00:50:59.145Z,13.81
2018-03-12T00:53:30.912Z,13.80
2018-03-12T00:56:07.188Z,13.76
2018-03-12T00:58:38.643Z,13.74
2018-03-12T01:01:10.324Z,13.72
2018-03-12T01:03:41.872Z,13.65
2018-03-12T01:06:14.444Z,13.70
2018-03-12T01:08:45.919Z,13.66
2018-03-12T01:11:18.107Z,13.57
2018-03-12T01:13:50.449Z,13.63
2018-03-12T01:16:22.491Z,13.61
2018-03-12T01:18:53.860Z,13.55
2018-03-12T01:21:25.223Z,13.51
2018-03-12T01:23:56.904Z,13.43
2018-03-12T01:26:28.405Z,13.48
2018-03-12T01:28:59.976Z,13.49
2018-03-12T01:31:32.003Z,13.46
2018-03-12T01:34:03.915Z,13.49
2018-03-12T01:36:36.000Z,13.44
2018-03-12T01:39:07.077Z,13.40
2018-03-12T01:41:38.540Z,13.46
2018-03-12T01:44:10.757Z,13.48
2018-03-12T01:46:42.523Z,13.39
2018-03-12T01:49:15.382Z,13.39
2018-03-12T01:51:47.589Z,13.49
2018-03-12T01:54:19.363Z,13.41
2018-03-12T01:56:50.655Z,13.42
2018-03-12T01:59:22.117Z,13.46
2018-03-12T02:01:56.076Z,13.39
2018-03-12T02:04:27.712Z,13.38
2018-03-12T02:07:00.689Z,13.33
2018-03-12T02:09:32.097Z,13.39
2018-03-12T02:12:04.151Z,13.42
2018-03-12T02:14:35.586Z,13.48
2018-03-12T02:17:08.208Z,13.49
2018-03-12T02:19:40.705Z,13.57
2018-03-12T02:22:12.623Z,13.51
2018-03-12T02:24:44.246Z,13.56
2018-03-12T02:27:19.844Z,13.51
2018-03-12T02:29:51.027Z,13.35
2018-03-12T02:32:30.746Z,13.30
2018-03-12T02:35:03.600Z,13.39
2018-03-12T02:37:38.085Z,13.43
2018-03-12T02:40:10.592Z,13.52
2018-03-12T02:42:41.997Z,13.55
2018-03-12T02:45:17.067Z,13.51
2018-03-12T02:47:48.436Z,13.49
2018-03-12T02:50:19.397Z,13.60
2018-03-12T02:52:50.903Z,13.52
2018-03-12T02:55:21.922Z,13.47
2018-03-12T02:57:53.373Z,13.61
2018-03-12T03:00:25.303Z,13.66
2018-03-12T03:02:56.491Z,13.62
2018-03-12T03:05:27.504Z,13.68
2018-03-12T03:08:03.721Z,13.67
2018-03-12T03:10:34.765Z,13.56
2018-03-12T03:13:06.468Z,13.56
2018-03-12T03:15:37.887Z,13.64
2018-03-12T03:18:12.197Z,13.72
2018-03-12T03:20:42.957Z,13.74
2018-03-12T03:23:14.101Z,13.75
2018-03-12T03:25:45.185Z,13.78
2018-03-12T03:28:16.324Z,13.77
2018-03-12T03:30:49.586Z,13.80
2018-03-12T03:33:27.872Z,13.89
2018-03-12T03:36:04.560Z,13.89
2018-03-12T03:38:35.361Z,13.91
2018-03-12T03:41:06.164Z,13.93
2018-03-12T03:43:36.717Z,13.93
2018-03-12T03:46:07.651Z,13.87
2018-03-12T03:48:38.580Z,13.89
2018-03-12T03:51:10.034Z,13.97
2018-03-12T03:53:41.246Z,13.94
2018-03-12T03:56:11.956Z,13.88
2018-03-12T03:58:47.665Z,13.78
2018-03-12T04:01:19.460Z,13.84
2018-03-12T04:03:50.500Z,13.75
2018-03-12T04:06:21.391Z,13.75
2018-03-12T04:08:51.831Z,13.83
2018-03-12T04:11:22.507Z,13.82
2018-03-12T04:13:53.026Z,13.84
2018-03-12T04:16:23.819Z,13.75
2018-03-12T04:18:54.876Z,13.76
2018-03-12T04:21:26.742Z,13.76
2018-03-12T04:23:57.095Z,13.65
2018-03-12T04:26:30.883Z,13.68
2018-03-12T04:29:01.922Z,13.67
2018-03-12T04:31:33.379Z,13.52
2018-03-12T04:34:03.878Z,13.54
2018-03-12T04:36:34.918Z,13.63
2018-03-12T04:39:05.722Z,13.54
2018-03-12T04:41:37.037Z,13.49
2018-03-12T04:44:07.750Z,13.55
2018-03-12T04:46:39.119Z,13.68
2018-03-12T04:49:10.077Z,13.55
2018-03-12T04:51:41.007Z,13.50
2018-03-12T04:54:11.811Z,13.47
2018-03-12T04:56:42.696Z,13.62
2018-03-12T04:59:13.799Z,13.60
2018-03-12T05:01:45.078Z,13.49
2018-03-12T05:04:16.825Z,13.37
2018-03-12T05:06:47.568Z,13.25
2018-03-12T05:09:18.056Z,13.28
2018-03-12T05:11:49.530Z,13.31
2018-03-12T05:14:20.128Z,13.31
2018-03-12T05:16:51.912Z,13.45
2018-03-12T05:19:22.937Z,13.38
2018-03-12T05:21:54.424Z,13.29
2018-03-12T05:24:25.815Z,13.47
2018-03-12T05:26:57.166Z,13.50
2018-03-12T05:29:28.183Z,13.56
2018-03-12T05:31:59.685Z,13.50
2018-03-12T05:34:30.991Z,13.49
2018-03-12T05:37:02.174Z,13.53
2018-03-12T05:39:33.939Z,13.54
2018-03-12T05:42:06.242Z,13.53
2018-03-12T05:44:37.434Z,13.67
2018-03-12T05:47:09.370Z,13.74
2018-03-12T05:49:41.233Z,13.64
2018-03-12T05:52:13.631Z,13.71
2018-03-12T05:57:24.538Z,13.62
2018-03-12T05:59:55.904Z,13.60
2018-03-12T06:02:28.566Z,13.37
2018-03-12T06:05:00.028Z,13.52
2018-03-12T06:07:31.344Z,13.47
2018-03-12T06:10:02.342Z,13.44
2018-03-12T06:12:34.510Z,13.45
2018-03-12T06:15:08.447Z,13.47
2018-03-12T06:17:41.389Z,13.56
2018-03-12T06:20:13.220Z,13.45
2018-03-12T06:22:48.375Z,13.55
2018-03-12T06:25:20.549Z,13.57
2018-03-12T06:27:51.928Z,13.68
2018-03-12T06:30:24.761Z,13.57
2018-03-12T06:32:56.188Z,13.61
2018-03-12T06:35:30.074Z,13.52
2018-03-12T06:38:01.697Z,13.60
2018-03-12T06:40:34.772Z,13.56
2018-03-12T06:43:06.256Z,13.64
2018-03-12T06:45:37.992Z,13.50
2018-03-12T06:48:30.647Z,13.40
2018-03-12T06:51:04.335Z,13.48
2018-03-12T06:53:36.192Z,13.38
2018-03-12T06:56:07.717Z,13.47
2018-03-12T06:58:39.346Z,13.47
2018-03-12T07:01:10.659Z,13.60
2018-03-12T07:03:42.793Z,13.59
2018-03-12T07:06:20.662Z,13.55
2018-03-12T07:08:54.967Z,13.50
2018-03-12T07:11:27.117Z,13.60
2018-03-12T07:14:00.116Z,13.52
2018-03-12T07:16:32.904Z,13.31
2018-03-12T07:19:04.968Z,13.26
2018-03-12T07:21:36.371Z,13.19
2018-03-12T07:24:08.028Z,13.31
2018-03-12T07:26:39.264Z,13.26
2018-03-12T07:29:10.671Z,13.43
2018-03-12T07:31:44.173Z,13.36
2018-03-12T07:34:16.721Z,13.48
2018-03-12T07:36:48.870Z,13.57
2018-03-12T07:39:21.144Z,13.55
2018-03-12T07:41:52.261Z,13.57
2018-03-12T07:44:25.185Z,13.71
2018-03-12T07:46:56.633Z,13.63
2018-03-12T07:49:28.378Z,13.50
2018-03-12T07:52:00.878Z,13.48
2018-03-12T07:54:35.300Z,13.46
2018-03-12T07:57:07.363Z,13.42
2018-03-12T07:59:40.193Z,13.65
2018-03-12T08:02:12.780Z,13.57
2018-03-12T08:04:45.849Z,13.60
2018-03-12T08:07:17.875Z,13.75
2018-03-12T08:09:50.287Z,13.83
2018-03-12T08:12:23.832Z,14.10
2018-03-12T08:14:56.072Z,14.12
2018-03-12T08:17:28.627Z,14.12
2018-03-12T08:20:00.016Z,14.21
2018-03-12T08:22:31.936Z,14.37
2018-03-12T08:25:03.696Z,14.19
2018-03-12T08:27:35.744Z,14.31
2018-03-12T08:30:09.783Z,13.92
2018-03-12T08:32:48.396Z,14.28
2018-03-12T08:35:21.242Z,14.77
2018-03-12T08:37:54.013Z,14.53
2018-03-12T08:40:25.359Z,14.74
2018-03-12T08:42:57.908Z,15.13
2018-03-12T08:45:30.980Z,15.32
2018-03-12T08:48:03.633Z,15.25
2018-03-12T08:50:35.086Z,15.22
2018-03-12T08:53:07.386Z,15.24
2018-03-12T08:55:39.918Z,15.31
2018-03-12T08:58:19.442Z,15.59
2018-03-12T09:01:05.521Z,15.76
2018-03-12T09:03:38.671Z,15.66
2018-03-12T09:06:19.761Z,15.83
2018-03-12T09:08:51.779Z,16.12
2018-03-12T09:11:33.930Z,16.20
2018-03-12T09:14:13.551Z,16.17
2018-03-12T09:16:46.853Z,16.08
2018-03-12T09:19:19.807Z,16.36
2018-03-12T09:21:51.200Z,15.67
2018-03-12T09:24:30.064Z,15.26
2018-03-12T09:27:02.887Z,15.25
2018-03-12T09:29:35.002Z,14.99
2018-03-12T09:32:08.838Z,15.24
2018-03-12T09:34:41.167Z,15.19
2018-03-12T09:37:13.297Z,15.07
2018-03-12T09:39:45.033Z,14.92
2018-03-12T09:42:17.385Z,14.37
2018-03-12T09:44:49.992Z,14.63
2018-03-12T09:47:23.139Z,14.57
2018-03-12T09:50:01.055Z,13.97
2018-03-12T09:52:33.317Z,14.15
2018-03-12T09:55:05.662Z,14.00
2018-03-12T09:57:37.143Z,14.44
2018-03-12T10:00:09.833Z,14.58
2018-03-12T10:02:41.919Z,15.10
2018-03-12T10:05:34.817Z,16.27
2018-03-12T10:08:06.901Z,17.07
2018-03-12T10:10:39.085Z,16.49
2018-03-12T10:13:11.467Z,16.44
2018-03-12T10:15:44.580Z,16.54
2018-03-12T10:18:16.464Z,16.95
2018-03-12T10:20:59.259Z,16.81
2018-03-12T10:23:33.036Z,17.09
2018-03-12T10:26:10.476Z,16.88
2018-03-12T10:28:43.948Z,16.77
2018-03-12T10:31:18.636Z,16.77
2018-03-12T10:33:52.255Z,17.11
2018-03-12T10:36:24.534Z,17.03
2018-03-12T10:38:57.519Z,17.15
2018-03-12T10:41:36.554Z,16.80
2018-03-12T10:44:08.659Z,16.50
2018-03-12T10:46:46.150Z,16.98
2018-03-12T10:49:18.968Z,17.76
2018-03-12T10:51:57.157Z,18.19
2018-03-12T10:54:28.658Z,19.36
2018-03-12T10:57:07.449Z,20.45
2018-03-12T10:59:43.650Z,19.96
2018-03-12T11:02:39.946Z,18.43
2018-03-12T11:05:13.673Z,18.56
2018-03-12T11:07:57.861Z,18.14
2018-03-12T11:10:32.168Z,17.60
2018-03-12T11:13:04.505Z,17.30
2018-03-12T11:18:28.880Z,18.17
2018-03-12T11:21:00.571Z,19.18
2018-03-12T11:23:31.704Z,19.37
2018-03-12T11:26:14.833Z,17.43
2018-03-12T11:28:47.868Z,17.83
2018-03-12T11:31:20.523Z,18.15
2018-03-12T11:33:52.303Z,18.15
2018-03-12T11:36:28.383Z,18.70
2018-03-12T11:39:00.134Z,19.01
2018-03-12T11:41:31.276Z,19.07
2018-03-12T11:44:02.086Z,18.91
2018-03-12T11:46:40.339Z,18.80
2018-03-12T11:49:12.119Z,18.79
2018-03-12T11:51:45.765Z,19.04
2018-03-12T11:54:17.347Z,18.95
2018-03-12T11:56:48.509Z,19.20
2018-03-12T11:59:22.601Z,18.79
2018-03-12T12:02:19.387Z,20.33
2018-03-12T12:04:54.083Z,20.68
2018-03-12T12:07:38.978Z,20.42
2018-03-12T12:10:11.994Z,19.79
2018-03-12T12:12:44.288Z,19.50
2018-03-12T12:15:20.004Z,19.31
2018-03-12T12:17:52.544Z,19.55
2018-03-12T12:20:24.018Z,19.56
2018-03-12T12:22:57.326Z,19.24
2018-03-12T12:25:33.972Z,19.06
2018-03-12T12:28:06.157Z,18.45
2018-03-12T12:30:44.980Z,18.19
2018-03-12T12:33:17.531Z,18.60
2018-03-12T12:35:51.728Z,18.38
2018-03-12T12:38:27.129Z,18.48
2018-03-12T12:40:59.472Z,18.47
2018-03-12T12:43:32.289Z,18.58
2018-03-12T12:46:04.329Z,18.45
2018-03-12T12:48:36.471Z,18.63
2018-03-12T12:51:07.445Z,18.57
2018-03-12T12:53:38.904Z,18.30
2018-03-12T12:56:13.946Z,18.35
2018-03-12T12:58:46.420Z,17.60
2018-03-12T13:01:20.628Z,17.99
2018-03-12T13:03:51.542Z,18.10
2018-03-12T13:06:22.995Z,18.24
2018-03-12T13:08:54.701Z,17.99
2018-03-12T13:11:25.821Z,17.60
2018-03-12T13:13:58.177Z,17.81
2018-03-12T13:16:30.156Z,17.57
2018-03-12T13:19:01.776Z,17.48
2018-03-12T13:21:33.452Z,17.39
2018-03-12T13:24:05.589Z,17.51
2018-03-12T13:26:39.317Z,17.66
2018-03-12T13:29:10.927Z,17.62
2018-03-12T13:31:42.718Z,18.43
2018-03-12T13:34:30.216Z,18.60
2018-03-12T13:37:03.813Z,18.36
2018-03-12T13:39:35.129Z,18.69
2018-03-12T13:42:06.513Z,18.31
2018-03-12T13:44:39.664Z,18.57
2018-03-12T13:47:10.601Z,18.46
2018-03-12T13:49:41.421Z,18.27
2018-03-12T13:52:12.164Z,18.48
2018-03-12T13:54:43.160Z,18.31
2018-03-12T13:57:14.711Z,18.37
2018-03-12T13:59:46.806Z,17.70
2018-03-12T14:02:20.250Z,18.07
2018-03-12T14:04:52.431Z,18.57
2018-03-12T14:07:36.296Z,18.59
2018-03-12T14:10:09.963Z,18.46
2018-03-12T14:12:41.077Z,18.62
2018-03-12T14:15:17.320Z,18.24
2018-03-12T14:17:49.263Z,17.96
2018-03-12T14:20:21.724Z,17.81
2018-03-12T14:22:56.934Z,17.76
2018-03-12T14:25:29.869Z,17.66
2018-03-12T14:31:01.927Z,17.65
2018-03-12T14:33:34.461Z,18.30
2018-03-12T14:36:06.335Z,18.48
2018-03-12T14:38:38.057Z,18.40
2018-03-12T14:41:09.348Z,18.50
2018-03-12T14:43:40.747Z,18.72
2018-03-12T14:46:12.478Z,18.42
2018-03-12T14:48:44.386Z,18.41
2018-03-12T14:51:15.524Z,18.37
2018-03-12T14:53:48.198Z,18.24
2018-03-12T14:56:21.202Z,18.33
2018-03-12T14:58:52.214Z,18.25
2018-03-12T15:01:28.264Z,18.02
2018-03-12T15:06:39.088Z,17.87
2018-03-12T15:09:10.300Z,17.94
2018-03-12T15:11:42.630Z,17.68
2018-03-12T15:16:47.166Z,15.99
2018-03-12T15:19:18.782Z,16.33
2018-03-12T15:22:00.744Z,16.66
2018-03-12T15:24:33.002Z,16.72
2018-03-12T15:27:06.249Z,16.61
2018-03-12T15:29:38.862Z,16.44
2018-03-12T15:32:13.079Z,16.35
2018-03-12T15:34:45.138Z,16.30
2018-03-12T15:37:17.060Z,16.41
2018-03-12T15:39:48.353Z,16.49
2018-03-12T15:42:20.312Z,16.63
2018-03-12T15:44:52.320Z,16.55
2018-03-12T15:47:25.780Z,16.64
2018-03-12T15:50:00.313Z,16.67
2018-03-12T15:52:32.201Z,16.41
2018-03-12T15:55:06.839Z,16.71
2018-03-12T15:57:40.837Z,16.71
2018-03-12T16:00:17.821Z,16.59
2018-03-12T16:02:51.049Z,16.68
2018-03-12T16:05:22.262Z,16.17
2018-03-12T16:07:53.285Z,16.52
2018-03-12T16:10:26.283Z,16.18
2018-03-12T16:12:58.220Z,16.04
2018-03-12T16:15:30.878Z,15.66
2018-03-12T16:18:05.044Z,15.93
2018-03-12T16:20:37.873Z,16.12
2018-03-12T16:26:13.188Z,16.15
2018-03-12T16:28:46.431Z,15.97
2018-03-12T16:36:41.440Z,16.07
2018-03-12T16:41:57.154Z,15.92
2018-03-12T16:44:29.627Z,15.90
2018-03-12T16:47:02.290Z,16.07
2018-03-12T16:49:33.966Z,16.23
2018-03-12T16:52:06.347Z,16.18
2018-03-12T16:54:41.552Z,15.89
2018-03-12T16:57:20.722Z,15.97
2018-03-12T16:59:52.014Z,15.76
2018-03-12T17:05:06.106Z,15.58
2018-03-12T17:07:38.536Z,15.75
2018-03-12T17:10:10.133Z,15.46
2018-03-12T17:12:41.521Z,15.43
2018-03-12T17:15:17.905Z,15.00
2018-03-12T17:17:49.011Z,15.27
2018-03-12T17:20:20.350Z,15.25
2018-03-12T17:25:28.825Z,15.55
2018-03-12T17:28:01.175Z,15.39
2018-03-12T17:30:33.828Z,15.37
2018-03-12T17:33:05.000Z,15.20
2018-03-12T17:35:37.036Z,15.31
2018-03-12T17:38:09.891Z,15.40
2018-03-12T17:40:43.889Z,15.47
2018-03-12T17:43:18.118Z,15.40
2018-03-12T17:45:52.246Z,15.34
2018-03-12T17:48:24.731Z,15.29
2018-03-12T17:50:57.452Z,14.91
2018-03-12T17:53:30.438Z,15.20
2018-03-12T17:56:07.796Z,15.16
2018-03-12T17:58:40.086Z,15.15
2018-03-12T18:01:12.975Z,15.39
2018-03-12T18:03:50.294Z,15.48
2018-03-12T18:06:24.950Z,15.36
2018-03-12T18:09:14.968Z,15.34
2018-03-12T18:11:47.980Z,15.22
2018-03-12T18:14:20.702Z,15.34
2018-03-12T18:16:53.560Z,15.36
2018-03-12T18:19:27.858Z,14.74
2018-03-12T18:22:02.067Z,15.05
2018-03-12T18:24:40.242Z,15.23
2018-03-12T18:27:20.106Z,15.34
2018-03-12T18:29:53.999Z,15.20
2018-03-12T18:32:27.030Z,15.03
2018-03-12T18:35:00.759Z,15.12
2018-03-12T18:37:34.370Z,15.16
2018-03-12T18:40:17.604Z,15.29
2018-03-12T18:42:50.495Z,15.39
2018-03-12T18:45:29.004Z,15.32
2018-03-12T18:48:11.051Z,15.29
2018-03-12T18:50:45.470Z,15.19
2018-03-12T18:53:17.709Z,15.34
2018-03-12T18:55:53.045Z,15.13
2018-03-12T18:58:27.359Z,15.14
2018-03-12T19:01:06.745Z,15.09
2018-03-12T19:03:52.553Z,14.82
2018-03-12T19:06:40.703Z,14.99
2018-03-12T19:09:17.122Z,14.86
2018-03-12T19:11:52.842Z,14.67
2018-03-12T19:14:29.285Z,14.54
2018-03-12T19:17:04.343Z,14.53
2018-03-12T19:19:44.604Z,14.57
2018-03-12T19:22:17.689Z,14.44
2018-03-12T19:24:49.953Z,14.45
2018-03-12T19:27:23.345Z,14.33
2018-03-12T19:32:44.077Z,14.48
2018-03-12T19:35:18.274Z,14.10
2018-03-12T19:37:52.861Z,13.97
2018-03-12T19:40:27.069Z,14.10
2018-03-12T19:43:04.885Z,14.23
2018-03-12T19:45:39.364Z,14.21
2018-03-12T19:48:17.032Z,14.21
2018-03-12T19:50:54.486Z,14.06
2018-03-12T19:53:28.899Z,14.19
2018-03-12T19:56:05.081Z,14.13
2018-03-12T19:58:39.867Z,14.12
2018-03-12T20:01:15.976Z,14.12
2018-03-12T20:03:51.948Z,13.97
2018-03-12T20:06:30.779Z,14.03
2018-03-12T20:09:14.770Z,14.11
2018-03-12T20:11:51.053Z,14.11
2018-03-12T20:14:30.237Z,14.13
2018-03-12T20:17:10.249Z,14.04
2018-03-12T20:19:43.221Z,14.00
2018-03-12T20:22:17.781Z,13.81
2018-03-12T20:24:55.132Z,13.92
2018-03-12T20:27:36.693Z,14.09
2018-03-12T20:30:25.658Z,13.97
2018-03-12T20:32:58.648Z,13.90
2018-03-12T20:35:32.606Z,13.92
2018-03-12T20:38:05.032Z,13.97
2018-03-12T20:40:40.268Z,13.89
2018-03-12T20:43:15.002Z,13.87
2018-03-12T20:45:48.736Z,13.66
2018-03-12T20:48:23.675Z,13.62
2018-03-12T20:50:55.548Z,13.57
2018-03-12T20:53:28.341Z,13.54
2018-03-12T20:56:01.791Z,13.56
2018-03-12T20:58:34.349Z,13.49
2018-03-12T21:01:08.986Z,13.55
2018-03-12T21:03:46.321Z,13.51
2018-03-12T21:06:19.994Z,13.46
2018-03-12T21:08:54.286Z,13.48
2018-03-12T21:11:26.156Z,13.30
2018-03-12T21:14:01.308Z,13.41
2018-03-12T21:16:35.463Z,13.58
2018-03-12T21:19:11.441Z,13.18
2018-03-12T21:21:46.096Z,13.56
2018-03-12T21:24:18.736Z,13.42
2018-03-12T21:26:51.420Z,13.45
2018-03-12T21:29:23.828Z,13.60
2018-03-12T21:32:06.162Z,13.50
2018-03-12T21:34:38.010Z,13.32
2018-03-12T21:37:16.012Z,13.18
2018-03-12T21:39:50.096Z,13.40
2018-03-12T21:42:22.023Z,13.49
2018-03-12T21:44:56.079Z,13.35
2018-03-12T21:47:28.022Z,13.26
2018-03-12T21:49:59.936Z,13.33
2018-03-12T21:52:31.182Z,13.49
2018-03-12T21:55:02.682Z,13.54
2018-03-12T22:00:18.750Z,13.59
2018-03-12T22:02:50.084Z,13.30
2018-03-12T22:05:21.448Z,13.15
2018-03-12T22:07:53.756Z,13.30
2018-03-12T22:10:24.623Z,13.58
2018-03-12T22:12:55.665Z,13.24
2018-03-12T22:15:27.194Z,13.30
2018-03-12T22:17:58.923Z,13.27
2018-03-12T22:20:29.856Z,13.28
2018-03-12T22:23:00.679Z,13.31
2018-03-12T22:25:32.774Z,13.33
2018-03-12T22:28:03.681Z,13.28
2018-03-12T22:30:35.027Z,13.26
2018-03-12T22:33:10.920Z,13.31
2018-03-12T22:35:42.053Z,13.38
2018-03-12T22:38:13.088Z,13.16
2018-03-12T22:40:44.459Z,12.99
2018-03-12T22:43:15.473Z,12.96
2018-03-12T22:45:49.492Z,13.10
2018-03-12T22:48:21.216Z,13.06
2018-03-12T22:50:52.274Z,13.04
2018-03-12T22:53:23.395Z,13.01
2018-03-12T22:55:54.614Z,12.98
2018-03-12T22:58:25.457Z,13.06
2018-03-12T23:00:57.639Z,13.01
2018-03-12T23:03:29.098Z,12.98
2018-03-12T23:05:59.935Z,12.79
2018-03-12T23:08:31.179Z,12.78
2018-03-12T23:11:02.375Z,12.88
2018-03-12T23:13:33.346Z,12.83
2018-03-12T23:16:05.298Z,12.81
2018-03-12T23:18:36.173Z,12.95
2018-03-12T23:21:07.952Z,12.99
2018-03-12T23:23:49.857Z,12.89
2018-03-12T23:26:20.908Z,12.95
2018-03-12T23:28:51.977Z,13.03
2018-03-12T23:31:23.726Z,13.12
2018-03-12T23:33:54.796Z,13.02
2018-03-12T23:36:26.548Z,13.05
2018-03-12T23:38:57.617Z,13.05
2018-03-12T23:41:29.025Z,12.95
2018-03-12T23:44:01.189Z,12.78
2018-03-12T23:46:32.635Z,12.92
2018-03-12T23:49:03.838Z,12.76
2018-03-12T23:51:35.234Z,12.85
2018-03-12T23:54:06.476Z,12.94
2018-03-12T23:56:37.399Z,13.00
2018-03-12T23:59:08.464Z,12.89
